createdAt,value
2022-09-24T00:02:42.148Z,90.56
2022-09-24T00:05:47.168Z,90.24
2022-09-24T00:08:52.287Z,89.81
2022-09-24T00:11:54.990Z,89.77
2022-09-24T00:14:57.597Z,89.72
2022-09-24T00:18:00.301Z,89.94
2022-09-24T00:21:12.973Z,90.07
2022-09-24T00:24:32.685Z,90.17
2022-09-24T00:27:35.394Z,89.75
2022-09-24T00:30:38.944Z,90.44
2022-09-24T00:33:41.581Z,90.27
2022-09-24T00:36:46.863Z,90.43
2022-09-24T00:39:49.770Z,90.17
2022-09-24T00:42:52.745Z,90.15
2022-09-24T00:45:58.075Z,90.18
2022-09-24T00:49:05.717Z,89.89
2022-09-24T00:52:11.332Z,89.88
2022-09-24T00:55:15.609Z,89.50
2022-09-24T00:58:19.112Z,89.41
2022-09-24T01:01:24.571Z,89.48
2022-09-24T01:04:29.936Z,89.28
2022-09-24T01:07:35.317Z,89.01
2022-09-24T01:10:52.304Z,89.00
2022-09-24T01:14:12.749Z,88.77
2022-09-24T01:17:26.984Z,88.73
2022-09-24T01:20:54.679Z,88.84
2022-09-24T01:24:30.274Z,89.07
2022-09-24T01:27:52.290Z,89.33
2022-09-24T01:31:02.321Z,90.21
2022-09-24T01:34:07.017Z,90.99
2022-09-24T01:37:10.365Z,91.31
2022-09-24T01:40:13.762Z,91.52
2022-09-24T01:43:18.475Z,91.28
2022-09-24T01:46:25.438Z,91.57
2022-09-24T01:49:28.646Z,91.68
2022-09-24T01:52:35.622Z,92.26
2022-09-24T02:00:03.842Z,92.12
2022-09-24T02:03:12.730Z,92.81
2022-09-24T02:06:19.457Z,93.42
2022-09-24T02:09:33.569Z,93.19
2022-09-24T02:12:42.668Z,92.78
2022-09-24T02:15:49.762Z,92.86
2022-09-24T02:18:58.730Z,92.85
2022-09-24T02:22:01.490Z,92.84
2022-09-24T02:25:10.599Z,93.09
2022-09-24T02:28:13.453Z,92.88
2022-09-24T02:31:21.452Z,92.71
2022-09-24T02:34:31.277Z,92.53
2022-09-24T02:37:37.496Z,92.07
2022-09-24T02:40:40.574Z,92.21
2022-09-24T02:43:43.653Z,92.37
2022-09-24T02:46:47.475Z,92.23
2022-09-24T02:49:51.606Z,92.21
2022-09-24T02:52:54.259Z,92.48
2022-09-24T02:55:57.936Z,92.35
2022-09-24T02:59:02.489Z,92.47
2022-09-24T03:02:05.661Z,92.42
2022-09-24T03:05:11.025Z,92.52
2022-09-24T03:08:14.165Z,92.78
2022-09-24T03:11:18.823Z,93.57
2022-09-24T03:14:21.855Z,93.42
2022-09-24T03:17:24.638Z,93.85
2022-09-24T03:20:28.737Z,93.99
2022-09-24T03:23:32.001Z,94.39
2022-09-24T03:26:34.953Z,94.69
2022-09-24T03:29:51.958Z,94.80
2022-09-24T03:32:54.640Z,94.77
2022-09-24T03:36:00.995Z,94.91
2022-09-24T03:39:03.800Z,94.52
2022-09-24T03:42:06.603Z,94.78
2022-09-24T03:45:10.230Z,94.93
2022-09-24T03:48:13.014Z,94.66
2022-09-24T03:51:20.076Z,94.91
2022-09-24T03:54:22.942Z,95.17
2022-09-24T03:57:25.627Z,95.86
2022-09-24T04:00:28.918Z,96.06
2022-09-24T04:03:31.974Z,95.88
2022-09-24T04:06:35.982Z,95.52
2022-09-24T04:09:38.665Z,95.69
2022-09-24T04:12:41.400Z,95.35
2022-09-24T04:15:44.483Z,95.31
2022-09-24T04:18:48.807Z,95.16
2022-09-24T04:21:53.245Z,95.74
2022-09-24T04:24:55.986Z,96.49
2022-09-24T04:28:00.595Z,97.52
2022-09-24T04:31:03.742Z,98.45
2022-09-24T04:34:06.517Z,98.71
2022-09-24T04:37:10.986Z,99.24
2022-09-24T04:40:14.025Z,99.46
2022-09-24T04:43:19.112Z,99.20
2022-09-24T04:46:21.855Z,98.95
2022-09-24T04:49:24.667Z,98.39
2022-09-24T04:52:31.418Z,97.97
2022-09-24T04:55:34.487Z,98.08
2022-09-24T04:58:37.161Z,97.86
2022-09-24T05:01:40.439Z,97.60
2022-09-24T05:04:43.679Z,97.53
2022-09-24T05:07:48.187Z,97.60
2022-09-24T05:10:50.865Z,97.53
2022-09-24T05:13:54.065Z,97.33
2022-09-24T05:16:57.134Z,97.74
2022-09-24T05:20:01.874Z,97.50
2022-09-24T05:23:06.045Z,97.42
2022-09-24T05:26:27.151Z,97.76
2022-09-24T05:29:30.090Z,97.81
2022-09-24T05:32:36.782Z,97.82
2022-09-24T05:35:39.483Z,98.01
2022-09-24T05:38:44.033Z,97.94
2022-09-24T05:41:46.706Z,98.70
2022-09-24T05:44:52.304Z,98.98
2022-09-24T05:47:55.655Z,99.37
2022-09-24T05:50:58.323Z,99.45
2022-09-24T05:54:03.820Z,99.91
2022-09-24T05:57:06.471Z,100.00
2022-09-24T06:00:10.459Z,99.93
2022-09-24T06:03:15.441Z,100.00
2022-09-24T06:06:18.738Z,100.00
2022-09-24T06:09:22.722Z,100.00
2022-09-24T06:12:25.997Z,100.00
2022-09-24T06:15:28.677Z,100.00
2022-09-24T06:18:31.739Z,100.00
2022-09-24T06:21:34.637Z,100.00
2022-09-24T06:24:38.636Z,100.00
2022-09-24T06:27:41.672Z,100.00
2022-09-24T06:30:44.307Z,100.00
2022-09-24T06:33:47.192Z,100.00
2022-09-24T06:36:49.915Z,100.00
2022-09-24T06:39:53.928Z,100.00
2022-09-24T06:42:57.050Z,100.00
2022-09-24T06:46:00.757Z,100.00
2022-09-24T06:49:03.589Z,99.87
2022-09-24T06:52:06.276Z,99.35
2022-09-24T06:55:10.603Z,99.26
2022-09-24T06:58:15.694Z,98.26
2022-09-24T07:01:18.674Z,98.55
2022-09-24T07:04:21.494Z,98.42
2022-09-24T07:07:33.956Z,98.56
2022-09-24T07:10:39.671Z,97.53
2022-09-24T07:13:42.815Z,96.24
2022-09-24T07:16:48.523Z,95.89
2022-09-24T07:19:51.387Z,94.83
2022-09-24T07:22:54.045Z,93.93
2022-09-24T07:25:59.008Z,92.44
2022-09-24T07:29:02.463Z,92.16
2022-09-24T07:32:05.983Z,92.22
2022-09-24T07:35:09.685Z,92.23
2022-09-24T07:38:13.546Z,92.83
2022-09-24T07:41:18.185Z,93.38
2022-09-24T07:44:21.929Z,93.36
2022-09-24T07:47:25.130Z,94.96
2022-09-24T07:50:29.630Z,95.35
2022-09-24T07:53:32.488Z,96.12
2022-09-24T07:56:36.880Z,96.60
2022-09-24T07:59:39.918Z,96.99
2022-09-24T08:02:42.953Z,96.13
2022-09-24T08:05:46.703Z,96.45
2022-09-24T08:08:50.425Z,96.67
2022-09-24T08:11:54.937Z,95.52
2022-09-24T08:14:57.613Z,95.11
2022-09-24T08:18:02.906Z,93.50
2022-09-24T08:21:07.485Z,92.57
2022-09-24T08:24:10.296Z,92.66
2022-09-24T08:27:17.346Z,88.88
2022-09-24T08:30:21.711Z,88.29
2022-09-24T08:33:24.783Z,87.55
2022-09-24T08:36:28.022Z,88.12
2022-09-24T08:39:30.746Z,87.03
2022-09-24T08:42:41.524Z,86.87
2022-09-24T08:46:07.997Z,84.55
2022-09-24T08:49:17.559Z,83.31
2022-09-24T08:52:31.370Z,82.37
2022-09-24T08:55:39.583Z,81.62
2022-09-24T08:58:50.271Z,80.36
2022-09-24T09:02:04.233Z,80.47
2022-09-24T09:05:16.973Z,78.98
2022-09-24T09:08:54.988Z,77.73
2022-09-24T09:12:00.592Z,78.30
2022-09-24T09:15:09.031Z,78.81
2022-09-24T09:18:16.107Z,78.87
2022-09-24T09:21:23.252Z,78.90
2022-09-24T09:24:34.781Z,77.53
2022-09-24T09:27:37.538Z,76.95
2022-09-24T09:30:55.394Z,77.29
2022-09-24T09:34:17.696Z,75.90
2022-09-24T09:37:29.454Z,76.30
2022-09-24T09:40:37.224Z,76.67
2022-09-24T09:43:42.465Z,76.03
2022-09-24T09:46:53.286Z,75.62
2022-09-24T09:50:05.689Z,75.95
2022-09-24T09:53:19.485Z,75.57
2022-09-24T09:56:26.117Z,74.96
2022-09-24T09:59:30.789Z,73.38
2022-09-24T10:02:38.744Z,72.37
2022-09-24T10:05:41.545Z,72.03
2022-09-24T10:08:44.444Z,72.28
2022-09-24T10:11:47.684Z,71.30
2022-09-24T10:14:59.256Z,70.22
2022-09-24T10:18:03.635Z,69.62
2022-09-24T10:21:11.967Z,69.72
2022-09-24T10:24:18.205Z,69.78
2022-09-24T10:27:28.588Z,69.08
2022-09-24T10:30:36.079Z,68.14
2022-09-24T10:33:42.781Z,67.56
2022-09-24T10:36:52.067Z,67.96
2022-09-24T10:39:59.020Z,67.10
2022-09-24T10:43:03.939Z,67.61
2022-09-24T10:46:21.703Z,66.71
2022-09-24T10:49:45.152Z,66.71
2022-09-24T10:52:52.463Z,65.25
2022-09-24T10:56:03.824Z,64.03
2022-09-24T10:59:23.486Z,63.60
2022-09-24T11:02:53.660Z,60.69
2022-09-24T11:06:03.461Z,62.38
2022-09-24T11:09:21.605Z,61.67
2022-09-24T11:12:36.848Z,59.71
2022-09-24T11:16:09.329Z,58.45
2022-09-24T11:19:28.739Z,57.05
2022-09-24T11:22:44.651Z,54.85
2022-09-24T11:25:55.155Z,55.24
2022-09-24T11:29:31.138Z,54.92
2022-09-24T11:32:45.917Z,55.07
2022-09-24T11:36:15.626Z,54.82
2022-09-24T11:39:35.798Z,53.50
2022-09-24T11:42:53.517Z,52.53
2022-09-24T11:46:12.390Z,53.60
2022-09-24T11:49:34.837Z,53.38
2022-09-24T11:52:43.603Z,52.93
2022-09-24T11:55:53.945Z,52.76
2022-09-24T11:59:00.542Z,52.72
2022-09-24T12:02:11.500Z,51.83
2022-09-24T12:05:20.867Z,51.69
2022-09-24T12:08:29.919Z,51.05
2022-09-24T12:11:41.239Z,51.30
2022-09-24T12:14:49.184Z,51.02
2022-09-24T12:17:57.833Z,49.70
2022-09-24T12:21:03.194Z,48.88
2022-09-24T12:24:12.275Z,50.03
2022-09-24T12:27:20.376Z,48.98
2022-09-24T12:30:52.888Z,49.31
2022-09-24T12:34:03.337Z,50.38
2022-09-24T12:37:11.494Z,50.67
2022-09-24T12:40:33.325Z,51.26
2022-09-24T12:43:44.162Z,51.26
2022-09-24T12:46:52.185Z,50.34
2022-09-24T12:49:58.552Z,50.29
2022-09-24T12:53:01.629Z,50.88
2022-09-24T12:56:06.139Z,51.13
2022-09-24T12:59:26.080Z,51.22
2022-09-24T13:02:31.281Z,51.25
2022-09-24T13:05:47.343Z,51.33
2022-09-24T13:08:50.833Z,51.26
2022-09-24T13:12:03.094Z,51.04
2022-09-24T13:15:10.653Z,51.34
2022-09-24T13:18:24.087Z,51.02
2022-09-24T13:21:29.376Z,50.52
2022-09-24T13:24:37.135Z,51.00
2022-09-24T13:27:41.730Z,51.90
2022-09-24T13:30:58.819Z,51.29
2022-09-24T13:34:05.743Z,52.02
2022-09-24T13:37:18.438Z,52.71
2022-09-24T13:40:25.920Z,52.60
2022-09-24T13:43:39.632Z,52.58
2022-09-24T13:46:47.799Z,52.85
2022-09-24T13:49:53.683Z,53.05
2022-09-24T13:53:00.087Z,52.38
2022-09-24T13:56:06.582Z,51.92
2022-09-24T13:59:13.599Z,51.57
2022-09-24T14:02:30.192Z,51.58
2022-09-24T14:05:36.916Z,51.05
2022-09-24T14:08:42.755Z,51.13
2022-09-24T14:11:53.306Z,51.42
2022-09-24T14:14:58.333Z,51.54
2022-09-24T14:18:03.044Z,51.52
2022-09-24T14:21:10.781Z,51.40
2022-09-24T14:24:18.932Z,51.61
2022-09-24T14:27:23.795Z,51.80
2022-09-24T14:30:29.405Z,52.72
2022-09-24T14:33:35.229Z,53.37
2022-09-24T14:36:37.998Z,53.86
2022-09-24T14:39:44.716Z,54.34
2022-09-24T14:42:49.778Z,55.38
2022-09-24T14:45:53.289Z,55.50
2022-09-24T14:49:08.388Z,55.00
2022-09-24T14:52:28.448Z,54.15
2022-09-24T14:55:42.518Z,53.77
2022-09-24T14:58:45.541Z,52.80
2022-09-24T15:01:48.322Z,52.51
2022-09-24T15:04:55.393Z,52.31
2022-09-24T15:08:20.957Z,52.70
2022-09-24T15:11:27.992Z,53.18
2022-09-24T15:14:34.788Z,53.68
2022-09-24T15:17:37.592Z,54.44
2022-09-24T15:20:42.127Z,55.38
2022-09-24T15:23:45.098Z,56.39
2022-09-24T15:26:51.151Z,57.10
2022-09-24T15:29:57.389Z,57.64
2022-09-24T15:33:00.187Z,58.33
2022-09-24T15:36:04.529Z,58.88
2022-09-24T15:39:07.677Z,59.57
2022-09-24T15:42:10.497Z,60.08
2022-09-24T15:45:18.194Z,61.94
2022-09-24T15:48:20.919Z,64.88
2022-09-24T15:51:25.520Z,66.59
2022-09-24T15:54:29.254Z,67.94
2022-09-24T15:57:32.246Z,68.49
2022-09-24T16:00:35.139Z,68.31
2022-09-24T16:03:38.147Z,68.13
2022-09-24T16:06:42.226Z,67.52
2022-09-24T16:09:44.950Z,66.90
2022-09-24T16:12:47.946Z,66.88
2022-09-24T16:15:51.025Z,68.00
2022-09-24T16:18:54.606Z,69.46
2022-09-24T16:21:59.825Z,70.36
2022-09-24T16:25:02.782Z,70.69
2022-09-24T16:28:05.727Z,71.01
2022-09-24T16:31:08.717Z,70.81
2022-09-24T16:34:12.004Z,71.36
2022-09-24T16:37:18.230Z,72.10
2022-09-24T16:40:21.341Z,71.57
2022-09-24T16:43:24.113Z,72.22
2022-09-24T16:46:26.987Z,72.24
2022-09-24T16:49:29.809Z,72.90
2022-09-24T16:52:33.915Z,73.72
2022-09-24T16:55:36.715Z,74.25
2022-09-24T16:58:39.953Z,75.32
2022-09-24T17:01:42.824Z,75.57
2022-09-24T17:04:45.505Z,75.75
2022-09-24T17:07:49.619Z,76.35
2022-09-24T17:10:54.758Z,76.51
2022-09-24T17:14:00.829Z,76.71
2022-09-24T17:17:03.512Z,76.80
2022-09-24T17:20:07.067Z,76.99
2022-09-24T17:23:11.102Z,77.61
2022-09-24T17:26:15.514Z,77.55
2022-09-24T17:29:20.680Z,77.45
2022-09-24T17:32:23.586Z,77.42
2022-09-24T17:35:26.400Z,77.81
2022-09-24T17:38:31.819Z,78.21
2022-09-24T17:41:36.033Z,78.82
2022-09-24T17:44:39.019Z,79.05
2022-09-24T17:47:57.062Z,79.00
2022-09-24T17:51:02.707Z,79.25
2022-09-24T17:54:12.743Z,79.82
2022-09-24T17:57:15.643Z,80.10
2022-09-24T18:00:18.459Z,80.57
2022-09-24T18:03:22.217Z,80.95
2022-09-24T18:06:31.977Z,81.34
2022-09-24T18:09:37.213Z,81.43
2022-09-24T18:12:40.290Z,82.50
2022-09-24T18:15:43.006Z,82.57
2022-09-24T18:18:46.478Z,82.51
2022-09-24T18:21:49.853Z,82.36
2022-09-24T18:24:54.258Z,82.18
2022-09-24T18:28:00.820Z,84.59
2022-09-24T18:31:05.118Z,86.88
2022-09-24T18:34:09.170Z,87.37
2022-09-24T18:37:12.427Z,87.27
2022-09-24T18:40:16.761Z,86.58
2022-09-24T18:43:20.662Z,86.35
2022-09-24T18:46:24.388Z,86.36
2022-09-24T18:49:27.625Z,86.03
2022-09-24T18:52:30.343Z,86.08
2022-09-24T18:55:39.343Z,86.45
2022-09-24T18:58:42.228Z,87.31
2022-09-24T19:01:46.334Z,87.98
2022-09-24T19:04:50.692Z,88.76
2022-09-24T19:07:54.140Z,88.53
2022-09-24T19:11:03.201Z,88.51
2022-09-24T19:14:06.058Z,88.35
2022-09-24T19:17:08.966Z,87.82
2022-09-24T19:20:11.945Z,87.64
2022-09-24T19:23:14.986Z,87.69
2022-09-24T19:26:21.206Z,87.74
2022-09-24T19:29:25.794Z,87.40
2022-09-24T19:32:28.659Z,87.45
2022-09-24T19:35:32.189Z,87.49
2022-09-24T19:38:37.015Z,87.62
2022-09-24T19:41:41.157Z,87.31
2022-09-24T19:44:44.118Z,87.74
2022-09-24T19:47:47.479Z,87.49
2022-09-24T19:50:50.209Z,88.02
2022-09-24T19:53:54.646Z,88.56
2022-09-24T19:56:59.368Z,89.57
2022-09-24T20:00:02.683Z,90.26
2022-09-24T20:03:06.240Z,90.87
2022-09-24T20:06:10.532Z,90.85
2022-09-24T20:09:13.616Z,90.45
2022-09-24T20:12:19.645Z,90.18
2022-09-24T20:15:23.201Z,90.63
2022-09-24T20:18:26.325Z,91.86
2022-09-24T20:21:32.716Z,92.51
2022-09-24T20:24:35.976Z,92.43
2022-09-24T20:27:51.609Z,92.37
2022-09-24T20:30:54.404Z,92.03
2022-09-24T20:33:57.555Z,91.58
2022-09-24T20:37:01.669Z,91.49
2022-09-24T20:40:05.341Z,91.48
2022-09-24T20:43:09.458Z,92.28
2022-09-24T20:46:14.431Z,92.72
2022-09-24T20:49:22.294Z,93.00
2022-09-24T20:52:25.349Z,92.86
2022-09-24T20:55:28.753Z,93.13
2022-09-24T20:58:33.362Z,92.99
2022-09-24T21:01:36.911Z,92.85
2022-09-24T21:04:40.297Z,92.25
2022-09-24T21:07:42.990Z,91.88
2022-09-24T21:10:46.782Z,91.76
2022-09-24T21:13:53.433Z,90.90
2022-09-24T21:16:56.499Z,90.80
2022-09-24T21:19:59.245Z,90.99
2022-09-24T21:23:02.623Z,90.88
2022-09-24T21:26:10.732Z,90.84
2022-09-24T21:29:17.695Z,90.82
2022-09-24T21:32:20.463Z,90.86
2022-09-24T21:35:23.558Z,90.87
2022-09-24T21:38:26.249Z,90.63
2022-09-24T21:41:31.657Z,90.74
2022-09-24T21:44:35.749Z,91.06
2022-09-24T21:47:38.891Z,91.00
2022-09-24T21:50:41.602Z,91.09
2022-09-24T21:53:44.749Z,91.26
2022-09-24T21:56:48.504Z,91.64
2022-09-24T22:00:03.505Z,92.01
2022-09-24T22:03:06.244Z,92.02
2022-09-24T22:06:10.037Z,92.14
2022-09-24T22:09:13.072Z,91.94
2022-09-24T22:12:16.970Z,91.92
2022-09-24T22:15:21.851Z,91.82
2022-09-24T22:18:25.858Z,91.72
2022-09-24T22:21:29.045Z,91.81
2022-09-24T22:24:32.273Z,92.08
2022-09-24T22:27:35.346Z,92.15
2022-09-24T22:30:44.662Z,91.82
2022-09-24T22:34:04.734Z,91.87
2022-09-24T22:37:08.436Z,92.32
2022-09-24T22:40:11.866Z,92.16
2022-09-24T22:43:14.985Z,92.49
2022-09-24T22:46:20.116Z,92.88
2022-09-24T22:49:23.895Z,93.43
2022-09-24T22:52:27.142Z,93.77
2022-09-24T22:55:30.029Z,93.69
2022-09-24T22:58:34.127Z,94.13
2022-09-24T23:01:42.264Z,94.78
2022-09-24T23:04:46.596Z,94.51
2022-09-24T23:07:49.702Z,94.36
2022-09-24T23:10:52.346Z,94.44
2022-09-24T23:13:57.001Z,94.35
2022-09-24T23:17:01.492Z,94.20
2022-09-24T23:20:05.179Z,94.37
2022-09-24T23:23:08.043Z,94.26
2022-09-24T23:26:16.407Z,94.88
2022-09-24T23:29:20.080Z,94.92
2022-09-24T23:32:24.083Z,94.85
2022-09-24T23:35:27.150Z,95.00
2022-09-24T23:38:30.766Z,95.14
2022-09-24T23:41:34.202Z,95.30
2022-09-24T23:44:37.895Z,95.27
2022-09-24T23:47:42.357Z,95.52
2022-09-24T23:50:46.217Z,95.75
2022-09-24T23:53:49.239Z,95.70
2022-09-24T23:56:52.321Z,95.97
2022-09-24T23:59:55.408Z,95.73
